Time;durP1;ratioP1;P1;durP2;ratioP2;P2;SDS_P1;SDS_P2;PMS_P1;PMS_P2;Temp;Humidity;BMP_temperature;BMP_pressure;BME280_temperature;BME280_humidity;BME280_pressure;Samples;Min_cycle;Max_cycle;Signal;HPM_P1;HPM_P2
2024/02/19 00:00:50;;;;;;;0.40;0.30;;;6.40;99.90;;;;;;2044691;28;20245;-74
2024/02/19 00:01:50;;;;;;;0.30;0.30;;;6.40;99.90;;;;;;2061066;28;20241;-72
2024/02/19 00:02:51;;;;;;;0.30;0.30;;;6.30;99.90;;;;;;2055368;28;20317;-74
2024/02/19 00:03:52;;;;;;;0.30;0.30;;;6.40;99.90;;;;;;2055308;28;20239;-72
2024/02/19 00:04:52;;;;;;;0.40;0.40;;;6.40;99.90;;;;;;2054773;28;20237;-72
2024/02/19 00:05:54;;;;;;;0.30;0.30;;;6.40;99.90;;;;;;2054151;28;20310;-73
2024/02/19 00:06:55;;;;;;;0.40;0.40;;;6.40;99.90;;;;;;2051040;28;20766;-72
2024/02/19 00:07:59;;;;;;;0.20;0.20;;;6.40;99.90;;;;;;2062568;28;20292;-73
2024/02/19 00:09:00;;;;;;;0.35;0.35;;;6.40;99.90;;;;;;2061806;28;20228;-72
2024/02/19 00:10:01;;;;;;;0.23;0.23;;;6.40;99.90;;;;;;2062974;28;20181;-74
2024/02/19 00:11:02;;;;;;;0.20;0.20;;;6.40;99.90;;;;;;2053343;28;20181;-72
2024/02/19 00:12:02;;;;;;;0.30;0.30;;;6.40;99.90;;;;;;2060738;28;20550;-73
2024/02/19 00:13:03;;;;;;;0.50;0.30;;;6.50;99.90;;;;;;2055012;28;20273;-72
2024/02/19 00:14:04;;;;;;;0.20;0.20;;;6.50;99.90;;;;;;2054522;28;20213;-73
2024/02/19 00:15:05;;;;;;;0.30;0.30;;;6.40;99.90;;;;;;2046633;28;20275;-72
2024/02/19 00:16:06;;;;;;;0.22;0.22;;;6.40;99.90;;;;;;2054735;28;20285;-72
2024/02/19 00:17:07;;;;;;;0.30;0.30;;;6.30;99.90;;;;;;2061311;28;20665;-72
2024/02/19 00:18:08;;;;;;;0.30;0.30;;;6.30;99.90;;;;;;2055225;28;20182;-73
2024/02/19 00:19:09;;;;;;;0.30;0.30;;;6.30;99.90;;;;;;2061145;28;20179;-72
2024/02/19 00:20:10;;;;;;;0.30;0.30;;;6.30;99.90;;;;;;2055317;28;20234;-72
2024/02/19 00:21:11;;;;;;;0.30;0.30;;;6.30;99.90;;;;;;2061691;28;20190;-73
2024/02/19 00:22:12;;;;;;;0.30;0.30;;;6.30;99.90;;;;;;2051785;28;20191;-74
2024/02/19 00:23:12;;;;;;;0.73;0.20;;;6.30;99.90;;;;;;2053355;28;20190;-74
2024/02/19 00:24:13;;;;;;;0.30;0.30;;;6.20;99.90;;;;;;2057569;28;20190;-73
2024/02/19 00:25:13;;;;;;;0.37;0.37;;;6.20;99.90;;;;;;2057870;28;20197;-72
2024/02/19 00:26:14;;;;;;;0.20;0.20;;;6.30;99.90;;;;;;2057807;28;20190;-74
2024/02/19 00:27:15;;;;;;;0.27;0.27;;;6.30;99.90;;;;;;2060944;28;20629;-72
2024/02/19 00:28:16;;;;;;;0.30;0.30;;;6.40;99.90;;;;;;2060060;28;20190;-72
2024/02/19 00:29:16;;;;;;;0.30;0.30;;;6.40;99.90;;;;;;2055780;28;20782;-72
2024/02/19 00:30:17;;;;;;;0.30;0.30;;;6.40;99.90;;;;;;2061568;28;20241;-73
2024/02/19 00:31:18;;;;;;;0.30;0.30;;;6.40;99.90;;;;;;2056841;28;20233;-73
2024/02/19 00:32:18;;;;;;;0.30;0.30;;;6.40;99.90;;;;;;2059114;28;20602;-73
2024/02/19 00:33:19;;;;;;;0.30;0.30;;;6.40;99.90;;;;;;2044283;28;20254;-72
2024/02/19 00:34:19;;;;;;;0.23;0.23;;;6.40;99.90;;;;;;2056703;28;20234;-73
2024/02/19 00:35:21;;;;;;;0.50;0.50;;;6.40;99.90;;;;;;2059597;28;20596;-72
2024/02/19 00:36:21;;;;;;;0.40;0.40;;;6.50;99.90;;;;;;2053671;28;20238;-72
2024/02/19 00:37:23;;;;;;;0.40;0.40;;;6.50;99.90;;;;;;2057598;28;20328;-73
2024/02/19 00:38:24;;;;;;;0.47;0.47;;;6.50;99.90;;;;;;2053635;28;20230;-72
2024/02/19 00:39:25;;;;;;;1.05;0.40;;;6.50;99.90;;;;;;2058182;28;20235;-72
2024/02/19 00:40:26;;;;;;;1.20;0.43;;;6.40;99.90;;;;;;2056598;28;20264;-74
2024/02/19 00:41:27;;;;;;;0.50;0.50;;;6.50;99.90;;;;;;2062682;28;20252;-73
2024/02/19 00:42:28;;;;;;;0.35;0.35;;;6.50;99.90;;;;;;2057614;28;20608;-73
2024/02/19 00:43:28;;;;;;;0.33;0.33;;;6.50;99.90;;;;;;2061273;28;20321;-72
2024/02/19 00:44:29;;;;;;;0.27;0.27;;;6.50;99.90;;;;;;2060652;28;20224;-73
2024/02/19 00:45:29;;;;;;;0.33;0.33;;;6.50;99.90;;;;;;2056320;28;20269;-72
2024/02/19 00:46:30;;;;;;;0.30;0.30;;;6.40;99.90;;;;;;2058042;28;20372;-72
2024/02/19 00:47:30;;;;;;;0.30;0.30;;;6.40;99.90;;;;;;2056322;28;20370;-72
2024/02/19 00:48:31;;;;;;;0.30;0.30;;;6.40;99.90;;;;;;2057889;28;20225;-71
2024/02/19 00:49:32;;;;;;;0.30;0.30;;;6.40;99.90;;;;;;2060548;28;20230;-73
2024/02/19 00:50:32;;;;;;;0.33;0.33;;;6.30;99.90;;;;;;2048737;28;20231;-73
2024/02/19 00:51:36;;;;;;;0.50;0.40;;;6.30;99.90;;;;;;2049813;28;20715;-73
2024/02/19 00:52:40;;;;;;;0.43;0.43;;;6.40;99.90;;;;;;2055474;28;20676;-74
2024/02/19 00:53:40;;;;;;;0.40;0.40;;;6.40;99.90;;;;;;2056733;28;20276;-72
2024/02/19 00:54:43;;;;;;;0.40;0.40;;;6.40;99.90;;;;;;2052976;28;20230;-73
2024/02/19 00:55:44;;;;;;;0.38;0.35;;;6.40;99.90;;;;;;2053218;28;20231;-72
2024/02/19 00:56:44;;;;;;;0.50;0.50;;;6.40;99.90;;;;;;2053529;28;20234;-71
2024/02/19 00:57:45;;;;;;;0.90;0.50;;;6.40;99.90;;;;;;2053694;28;20270;-73
2024/02/19 00:58:46;;;;;;;0.40;0.40;;;6.50;99.90;;;;;;2060744;28;20317;-73
2024/02/19 00:59:47;;;;;;;0.20;0.20;;;6.40;99.90;;;;;;2053123;28;20227;-74
2024/02/19 01:00:48;;;;;;;0.30;0.30;;;6.40;99.90;;;;;;2053731;28;20233;-74
2024/02/19 01:01:49;;;;;;;0.57;0.50;;;6.40;99.90;;;;;;2061218;28;20240;-72
2024/02/19 01:02:49;;;;;;;0.40;0.40;;;6.40;99.90;;;;;;2062080;28;20229;-72
2024/02/19 01:03:50;;;;;;;0.50;0.50;;;6.40;99.90;;;;;;2061507;28;20732;-74
2024/02/19 01:04:53;;;;;;;0.50;0.50;;;6.50;99.90;;;;;;2061384;28;20328;-74
2024/02/19 01:05:53;;;;;;;0.55;0.55;;;6.50;99.90;;;;;;2061736;28;20992;-72
2024/02/19 01:06:54;;;;;;;0.30;0.30;;;6.40;99.90;;;;;;2061529;28;20233;-71
2024/02/19 01:07:54;;;;;;;0.63;0.47;;;6.40;99.90;;;;;;2061097;28;20222;-71
2024/02/19 01:08:55;;;;;;;0.40;0.40;;;6.40;99.90;;;;;;2062834;28;20296;-72
2024/02/19 01:09:55;;;;;;;0.43;0.43;;;6.40;99.90;;;;;;2053542;28;20227;-73
2024/02/19 01:10:56;;;;;;;0.50;0.50;;;6.40;99.90;;;;;;2058063;28;20221;-72
2024/02/19 01:11:56;;;;;;;0.47;0.47;;;6.40;99.90;;;;;;2053331;28;20214;-74
2024/02/19 01:12:57;;;;;;;0.50;0.50;;;6.40;99.90;;;;;;2044090;29;20218;-72
2024/02/19 01:13:58;;;;;;;0.67;0.50;;;6.40;99.90;;;;;;2052849;28;20681;-72
2024/02/19 01:14:58;;;;;;;0.40;0.40;;;6.50;99.90;;;;;;2054898;28;20262;-72
2024/02/19 01:15:59;;;;;;;1.70;0.43;;;6.50;99.90;;;;;;2053589;28;20223;-72
2024/02/19 01:16:59;;;;;;;0.40;0.40;;;6.50;99.90;;;;;;2050530;28;20192;-72
2024/02/19 01:18:00;;;;;;;0.40;0.40;;;6.50;99.90;;;;;;2052682;28;20186;-72
2024/02/19 01:19:00;;;;;;;0.40;0.40;;;6.50;99.90;;;;;;2045951;28;20241;-73
2024/02/19 01:20:02;;;;;;;0.40;0.40;;;6.50;99.90;;;;;;2064141;28;20228;-73
2024/02/19 01:21:03;;;;;;;0.47;0.47;;;6.50;99.90;;;;;;2060588;28;20189;-71
2024/02/19 01:22:04;;;;;;;0.32;0.32;;;6.50;99.90;;;;;;2054543;28;20201;-73
2024/02/19 01:23:04;;;;;;;0.57;0.40;;;6.50;99.90;;;;;;2060508;28;20733;-73
2024/02/19 01:24:05;;;;;;;0.50;0.50;;;6.50;99.90;;;;;;2054299;28;20185;-74
2024/02/19 01:25:06;;;;;;;0.40;0.40;;;6.50;99.90;;;;;;2061006;28;20201;-72
2024/02/19 01:26:06;;;;;;;0.40;0.40;;;6.50;99.90;;;;;;2054868;28;20210;-73
2024/02/19 01:27:07;;;;;;;0.40;0.40;;;6.50;99.90;;;;;;2061084;28;20432;-73
2024/02/19 01:28:08;;;;;;;0.40;0.40;;;6.50;99.90;;;;;;2057729;28;20189;-74
2024/02/19 01:29:08;;;;;;;0.40;0.40;;;6.50;99.90;;;;;;2056951;28;20735;-73
2024/02/19 01:30:09;;;;;;;0.40;0.40;;;6.50;99.90;;;;;;2055418;28;20868;-72
2024/02/19 01:31:10;;;;;;;0.35;0.35;;;6.40;99.90;;;;;;2061778;28;20175;-71
2024/02/19 01:32:11;;;;;;;1.17;0.50;;;6.40;99.90;;;;;;2061076;28;20658;-71
2024/02/19 01:33:12;;;;;;;0.40;0.30;;;6.50;99.90;;;;;;2061455;28;20290;-72
2024/02/19 01:34:14;;;;;;;0.40;0.40;;;6.50;99.90;;;;;;2055998;28;20199;-71
2024/02/19 01:35:14;;;;;;;0.47;0.40;;;6.50;99.90;;;;;;2058136;28;20187;-72
2024/02/19 01:36:15;;;;;;;0.30;0.30;;;6.50;99.90;;;;;;2064756;28;20214;-73
2024/02/19 01:37:16;;;;;;;0.30;0.30;;;6.50;99.90;;;;;;2057833;28;20261;-72
2024/02/19 01:38:17;;;;;;;0.30;0.30;;;6.60;99.90;;;;;;2059629;28;21697;-72
2024/02/19 01:39:18;;;;;;;0.30;0.30;;;6.60;99.90;;;;;;2053888;28;20740;-72
2024/02/19 01:40:18;;;;;;;0.37;0.37;;;6.70;99.90;;;;;;2059882;28;20332;-72
2024/02/19 01:41:19;;;;;;;0.40;0.40;;;6.70;99.90;;;;;;2051251;28;20234;-73
2024/02/19 01:42:19;;;;;;;0.30;0.30;;;6.70;99.90;;;;;;2052370;28;20229;-73
2024/02/19 01:43:20;;;;;;;0.30;0.30;;;6.70;99.90;;;;;;2058494;28;20701;-73
2024/02/19 01:44:21;;;;;;;0.40;0.40;;;6.60;99.90;;;;;;2049653;28;20797;-73
2024/02/19 01:45:28;;;;;;;0.30;0.30;;;6.60;99.90;;;;;;2062793;28;20244;-72
2024/02/19 01:46:31;;;;;;;0.30;0.30;;;6.70;99.90;;;;;;2056576;28;20230;-74
2024/02/19 01:47:32;;;;;;;0.30;0.30;;;6.70;99.90;;;;;;2057530;28;20368;-72
2024/02/19 01:48:33;;;;;;;0.38;0.38;;;6.70;99.90;;;;;;2056519;28;20237;-73
2024/02/19 01:49:34;;;;;;;0.40;0.40;;;6.70;99.90;;;;;;2053718;28;20251;-72
2024/02/19 01:50:37;;;;;;;0.30;0.30;;;6.60;99.90;;;;;;2059145;28;20229;-71
2024/02/19 01:51:39;;;;;;;0.40;0.40;;;6.60;99.90;;;;;;2055840;28;20219;-72
2024/02/19 01:52:40;;;;;;;0.30;0.30;;;6.50;99.90;;;;;;2058405;28;20711;-72
2024/02/19 01:53:41;;;;;;;0.33;0.33;;;6.50;99.90;;;;;;2062157;28;20226;-72
2024/02/19 01:54:42;;;;;;;0.40;0.40;;;6.50;99.90;;;;;;2065965;28;20251;-73
2024/02/19 01:55:48;;;;;;;0.30;0.30;;;6.50;99.90;;;;;;2053744;28;20593;-73
2024/02/19 01:56:49;;;;;;;0.32;0.32;;;6.50;99.90;;;;;;2052337;28;20222;-73
2024/02/19 01:57:51;;;;;;;0.30;0.30;;;6.70;99.90;;;;;;2051976;28;20233;-72
2024/02/19 01:58:52;;;;;;;0.30;0.30;;;6.70;99.90;;;;;;2053504;28;20231;-73
2024/02/19 01:59:54;;;;;;;0.30;0.30;;;6.70;99.90;;;;;;2052361;28;20230;-73
2024/02/19 02:00:58;;;;;;;0.30;0.30;;;6.70;99.90;;;;;;2049441;28;20635;-73
2024/02/19 02:01:59;;;;;;;0.43;0.30;;;6.80;99.90;;;;;;2058212;28;20257;-73
2024/02/19 02:03:03;;;;;;;0.30;0.30;;;6.80;99.90;;;;;;2053558;28;20191;-73
2024/02/19 02:04:08;;;;;;;0.30;0.30;;;6.80;99.90;;;;;;2059535;28;20190;-73
2024/02/19 02:05:13;;;;;;;0.55;0.40;;;6.80;99.90;;;;;;2051702;28;20711;-73
2024/02/19 02:06:13;;;;;;;0.30;0.30;;;6.80;99.90;;;;;;2056738;28;20196;-72
2024/02/19 02:07:14;;;;;;;0.20;0.20;;;6.80;99.90;;;;;;2053060;28;20202;-73
2024/02/19 02:08:16;;;;;;;0.20;0.20;;;6.80;99.90;;;;;;2050911;28;20667;-73
2024/02/19 02:09:17;;;;;;;1.23;0.32;;;6.80;99.90;;;;;;2055549;28;20244;-72
2024/02/19 02:10:18;;;;;;;0.30;0.30;;;6.80;99.90;;;;;;2058314;28;20636;-73
2024/02/19 02:11:19;;;;;;;0.30;0.30;;;6.80;99.90;;;;;;2049227;28;20302;-73
2024/02/19 02:12:20;;;;;;;0.50;0.47;;;6.90;99.90;;;;;;2045098;28;20304;-73
2024/02/19 02:13:22;;;;;;;0.60;0.60;;;6.90;99.90;;;;;;2056546;28;20634;-73
2024/02/19 02:14:22;;;;;;;0.40;0.40;;;6.80;99.90;;;;;;2048689;28;20864;-73
2024/02/19 02:15:23;;;;;;;0.33;0.33;;;6.80;99.90;;;;;;2052197;28;20325;-73
2024/02/19 02:16:28;;;;;;;0.53;0.50;;;6.80;99.90;;;;;;2052651;28;20245;-73
2024/02/19 02:17:29;;;;;;;0.55;0.43;;;6.80;99.90;;;;;;2060681;28;20726;-73
2024/02/19 02:18:30;;;;;;;1.60;0.50;;;6.70;99.90;;;;;;2057052;28;20262;-73
2024/02/19 02:19:30;;;;;;;0.50;0.50;;;6.70;99.90;;;;;;2050064;28;20238;-73
2024/02/19 02:20:31;;;;;;;0.70;0.70;;;6.70;99.90;;;;;;2054433;28;20230;-73
2024/02/19 02:21:33;;;;;;;0.63;0.63;;;6.70;99.90;;;;;;2056782;28;20234;-73
2024/02/19 02:22:35;;;;;;;0.63;0.50;;;6.80;99.90;;;;;;2049262;28;20284;-73
2024/02/19 02:23:36;;;;;;;1.10;0.60;;;7.00;99.90;;;;;;2055802;28;20306;-73
2024/02/19 02:24:36;;;;;;;0.60;0.60;;;6.90;99.90;;;;;;2055340;28;20731;-73
2024/02/19 02:25:37;;;;;;;0.60;0.60;;;6.80;99.90;;;;;;2056126;28;20276;-73
2024/02/19 02:26:39;;;;;;;0.80;0.80;;;6.80;99.90;;;;;;2055270;28;20802;-73
2024/02/19 02:27:39;;;;;;;1.00;0.65;;;6.80;99.90;;;;;;2055245;28;20251;-73
2024/02/19 02:28:42;;;;;;;0.83;0.83;;;6.80;99.90;;;;;;2056263;28;20709;-73
2024/02/19 02:29:42;;;;;;;0.80;0.80;;;6.70;99.90;;;;;;2055239;28;20227;-73
2024/02/19 02:30:43;;;;;;;0.70;0.70;;;6.60;99.90;;;;;;2054548;28;20353;-73
2024/02/19 02:31:43;;;;;;;1.00;0.90;;;6.60;99.90;;;;;;2045310;28;20598;-73
2024/02/19 02:32:44;;;;;;;0.70;0.70;;;6.70;99.90;;;;;;2044931;28;20350;-74
2024/02/19 02:33:44;;;;;;;1.00;0.90;;;6.60;99.90;;;;;;2040991;28;20239;-73
2024/02/19 02:34:45;;;;;;;0.60;0.60;;;6.70;99.90;;;;;;2044518;28;20246;-73
2024/02/19 02:35:46;;;;;;;1.00;0.80;;;6.70;99.90;;;;;;2059459;28;20237;-73
2024/02/19 02:36:46;;;;;;;1.57;1.00;;;6.70;99.90;;;;;;2060619;28;20711;-73
2024/02/19 02:37:47;;;;;;;1.27;0.93;;;6.70;99.90;;;;;;2061811;28;20284;-73
2024/02/19 02:38:47;;;;;;;1.20;1.00;;;6.70;99.90;;;;;;2060427;28;20268;-73
2024/02/19 02:39:48;;;;;;;1.10;1.00;;;6.70;99.90;;;;;;2054064;28;20672;-72
2024/02/19 02:40:48;;;;;;;1.07;0.97;;;6.60;99.90;;;;;;2061352;28;20573;-73
2024/02/19 02:41:49;;;;;;;1.20;0.97;;;6.60;99.90;;;;;;2054123;28;20692;-73
2024/02/19 02:42:50;;;;;;;1.40;0.93;;;6.60;99.90;;;;;;2060099;28;20234;-73
2024/02/19 02:43:50;;;;;;;1.13;0.97;;;6.60;99.90;;;;;;2054232;28;20245;-73
2024/02/19 02:44:51;;;;;;;0.77;0.77;;;6.70;99.90;;;;;;2048943;28;20254;-73
2024/02/19 02:45:51;;;;;;;1.17;1.07;;;6.60;99.90;;;;;;2061295;28;20225;-73
2024/02/19 02:46:52;;;;;;;1.60;1.00;;;6.70;99.90;;;;;;2054694;28;20231;-74
2024/02/19 02:47:53;;;;;;;1.57;0.93;;;6.60;99.90;;;;;;2054531;28;20244;-73
2024/02/19 02:48:53;;;;;;;0.90;0.83;;;6.70;99.90;;;;;;2052178;28;20698;-73
2024/02/19 02:49:54;;;;;;;1.53;1.40;;;6.70;99.90;;;;;;2053810;28;20718;-73
2024/02/19 02:50:54;;;;;;;1.27;1.10;;;6.70;99.90;;;;;;2050368;28;20610;-73
2024/02/19 02:51:55;;;;;;;1.40;1.30;;;6.80;99.90;;;;;;2057277;28;20234;-73
2024/02/19 02:52:55;;;;;;;1.43;1.30;;;6.70;99.90;;;;;;2051458;28;20314;-73
2024/02/19 02:53:56;;;;;;;1.40;1.30;;;6.70;99.90;;;;;;2060101;28;20236;-73
2024/02/19 02:54:56;;;;;;;1.40;1.30;;;6.70;99.90;;;;;;2051814;28;20242;-73
2024/02/19 02:55:57;;;;;;;1.60;1.40;;;6.70;99.90;;;;;;2047123;28;20237;-70
2024/02/19 02:56:58;;;;;;;1.83;1.50;;;6.70;99.90;;;;;;2056287;28;20273;-72
2024/02/19 02:57:58;;;;;;;1.70;1.50;;;6.70;99.90;;;;;;2049768;28;20219;-74
2024/02/19 02:58:59;;;;;;;1.67;1.40;;;6.70;99.90;;;;;;2059281;28;20266;-73
2024/02/19 02:59:59;;;;;;;1.40;1.30;;;6.70;99.90;;;;;;2052392;28;20201;-73
2024/02/19 03:01:01;;;;;;;2.17;1.80;;;6.70;99.90;;;;;;2056053;28;20189;-73
2024/02/19 03:02:02;;;;;;;2.30;1.80;;;6.70;99.90;;;;;;2050220;28;20641;-73
2024/02/19 03:03:03;;;;;;;2.90;2.05;;;6.70;99.90;;;;;;2048395;28;20320;-73
2024/02/19 03:04:04;;;;;;;2.37;1.50;;;6.70;99.90;;;;;;2059615;28;20207;-73
2024/02/19 03:05:05;;;;;;;2.43;1.93;;;6.70;99.90;;;;;;2052218;28;20200;-73
2024/02/19 03:06:05;;;;;;;2.17;1.97;;;6.80;99.90;;;;;;2049807;28;20221;-73
2024/02/19 03:07:06;;;;;;;1.77;1.53;;;6.70;99.90;;;;;;2057346;28;20182;-73
2024/02/19 03:08:07;;;;;;;2.40;1.93;;;6.70;99.90;;;;;;2058806;28;20220;-73
2024/02/19 03:09:07;;;;;;;2.17;1.98;;;6.70;99.90;;;;;;2048884;28;20238;-73
2024/02/19 03:10:11;;;;;;;1.53;1.43;;;6.60;99.90;;;;;;2054154;28;20180;-73
2024/02/19 03:11:12;;;;;;;2.38;1.67;;;6.70;99.90;;;;;;2049965;28;20183;-73
2024/02/19 03:12:13;;;;;;;1.73;1.42;;;6.70;99.90;;;;;;2052072;28;20192;-73
2024/02/19 03:13:13;;;;;;;1.27;1.10;;;6.60;99.90;;;;;;2051931;28;20188;-73
2024/02/19 03:14:14;;;;;;;2.97;1.47;;;6.60;99.90;;;;;;2060351;28;20713;-72
2024/02/19 03:15:15;;;;;;;2.20;1.70;;;6.60;99.90;;;;;;2053178;28;20187;-73
2024/02/19 03:16:17;;;;;;;3.37;1.50;;;6.60;99.90;;;;;;2051826;28;20207;-73
2024/02/19 03:17:17;;;;;;;2.08;1.65;;;6.60;99.90;;;;;;2055888;28;20941;-73
2024/02/19 03:18:18;;;;;;;1.63;1.50;;;6.70;99.90;;;;;;2061174;28;20238;-73
2024/02/19 03:19:20;;;;;;;2.40;2.10;;;6.70;99.90;;;;;;2057746;28;20747;-73
2024/02/19 03:20:23;;;;;;;3.25;1.75;;;6.70;99.90;;;;;;2056133;28;20778;-73
2024/02/19 03:21:23;;;;;;;2.95;2.00;;;6.70;99.90;;;;;;2055290;28;20255;-73
2024/02/19 03:22:25;;;;;;;1.87;1.67;;;6.70;99.90;;;;;;2061283;28;20246;-73
2024/02/19 03:23:26;;;;;;;2.90;1.80;;;6.70;99.90;;;;;;2057645;28;20317;-73
2024/02/19 03:24:27;;;;;;;3.07;2.07;;;6.70;99.90;;;;;;2058362;28;20252;-73
2024/02/19 03:25:27;;;;;;;2.33;2.00;;;6.70;99.90;;;;;;2061988;28;20229;-73
2024/02/19 03:26:28;;;;;;;3.93;2.10;;;6.70;99.90;;;;;;2058912;28;20227;-73
2024/02/19 03:27:29;;;;;;;2.20;2.00;;;6.70;99.90;;;;;;2055424;28;20250;-73
2024/02/19 03:28:29;;;;;;;2.83;2.20;;;6.80;99.90;;;;;;2058687;28;20325;-73
2024/02/19 03:29:30;;;;;;;4.27;2.03;;;6.80;99.90;;;;;;2055349;28;20252;-73
2024/02/19 03:30:31;;;;;;;1.93;1.70;;;6.80;99.90;;;;;;2058390;28;20676;-74
2024/02/19 03:31:31;;;;;;;2.30;2.03;;;6.80;99.90;;;;;;2050281;28;20386;-73
2024/02/19 03:32:32;;;;;;;2.40;2.00;;;6.80;99.90;;;;;;2054940;28;20264;-73
2024/02/19 03:33:32;;;;;;;1.77;1.67;;;6.90;99.90;;;;;;2059358;28;20325;-73
2024/02/19 03:34:33;;;;;;;2.63;1.70;;;7.00;99.90;;;;;;2052596;28;20238;-73
2024/02/19 03:35:33;;;;;;;1.73;1.63;;;7.00;99.90;;;;;;2062741;28;20242;-73
2024/02/19 03:36:34;;;;;;;1.80;1.53;;;7.00;99.90;;;;;;2057134;28;20257;-72
2024/02/19 03:37:35;;;;;;;1.63;1.53;;;7.00;99.90;;;;;;2049766;28;20733;-73
2024/02/19 03:38:36;;;;;;;1.57;1.10;;;7.00;99.90;;;;;;2049084;28;20240;-73
2024/02/19 03:39:37;;;;;;;1.20;1.10;;;7.00;99.90;;;;;;2060117;28;20258;-73
2024/02/19 03:40:37;;;;;;;1.43;1.27;;;6.90;99.90;;;;;;2056583;28;20227;-73
2024/02/19 03:41:38;;;;;;;1.40;1.30;;;6.90;99.90;;;;;;2052552;28;20231;-74
2024/02/19 03:42:38;;;;;;;1.20;1.10;;;6.80;99.90;;;;;;2056143;28;20285;-73
2024/02/19 03:43:39;;;;;;;1.53;1.10;;;6.90;99.90;;;;;;2056752;28;20397;-73
2024/02/19 03:44:39;;;;;;;0.63;0.63;;;6.90;99.90;;;;;;2055970;28;20261;-73
2024/02/19 03:45:40;;;;;;;0.70;0.67;;;6.90;99.90;;;;;;2055465;28;20239;-73
2024/02/19 03:46:41;;;;;;;0.90;0.83;;;7.00;99.90;;;;;;2048587;28;20336;-73
2024/02/19 03:47:41;;;;;;;0.80;0.80;;;7.00;99.90;;;;;;2051370;28;20230;-74
2024/02/19 03:48:42;;;;;;;0.87;0.70;;;7.00;99.90;;;;;;2055570;28;20242;-73
2024/02/19 03:49:43;;;;;;;0.80;0.80;;;7.00;99.90;;;;;;2064367;28;20295;-74
2024/02/19 03:50:43;;;;;;;1.70;1.20;;;7.00;99.90;;;;;;2061626;28;20229;-73
2024/02/19 03:51:44;;;;;;;0.80;0.73;;;7.00;99.90;;;;;;2057332;28;20346;-73
2024/02/19 03:52:44;;;;;;;0.50;0.50;;;7.00;99.90;;;;;;2050136;28;20232;-73
2024/02/19 03:53:45;;;;;;;0.50;0.50;;;7.00;99.90;;;;;;2051026;28;20238;-73
2024/02/19 03:54:46;;;;;;;1.57;0.60;;;7.00;99.90;;;;;;2057210;28;20230;-73
2024/02/19 03:55:47;;;;;;;0.50;0.50;;;7.10;99.90;;;;;;2055993;28;20480;-73
2024/02/19 03:56:48;;;;;;;0.70;0.57;;;7.10;99.90;;;;;;2053833;28;20231;-73
2024/02/19 03:57:49;;;;;;;0.50;0.50;;;7.00;99.90;;;;;;2047131;28;20994;-73
2024/02/19 03:58:50;;;;;;;0.50;0.50;;;7.00;99.90;;;;;;2062522;28;20234;-73
2024/02/19 03:59:50;;;;;;;0.30;0.30;;;7.00;99.90;;;;;;2059196;28;20230;-72
2024/02/19 04:00:51;;;;;;;0.50;0.50;;;7.00;99.90;;;;;;2058637;28;20231;-72
2024/02/19 04:01:51;;;;;;;0.40;0.40;;;6.90;99.90;;;;;;2055970;28;20235;-73
2024/02/19 04:02:52;;;;;;;1.57;0.60;;;6.90;99.90;;;;;;2049420;28;20239;-72
2024/02/19 04:03:52;;;;;;;0.40;0.40;;;6.90;99.90;;;;;;2057249;28;20240;-72
2024/02/19 04:04:53;;;;;;;1.07;0.50;;;6.90;99.90;;;;;;2053961;28;20259;-72
2024/02/19 04:05:53;;;;;;;0.50;0.40;;;6.80;99.90;;;;;;2045141;28;20235;-72
2024/02/19 04:06:54;;;;;;;0.83;0.50;;;6.80;99.90;;;;;;2053382;28;20234;-72
2024/02/19 04:07:55;;;;;;;0.50;0.50;;;6.70;99.90;;;;;;2061746;28;20245;-72
2024/02/19 04:08:55;;;;;;;0.30;0.30;;;6.80;99.90;;;;;;2053854;28;20237;-74
2024/02/19 04:09:56;;;;;;;0.40;0.40;;;6.70;99.90;;;;;;2050153;28;20765;-72
2024/02/19 04:10:56;;;;;;;0.53;0.40;;;6.70;99.90;;;;;;2051371;28;20601;-72
2024/02/19 04:11:57;;;;;;;0.63;0.63;;;6.70;99.90;;;;;;2061405;28;20680;-72
2024/02/19 04:12:57;;;;;;;0.50;0.50;;;6.70;99.90;;;;;;2052568;28;20669;-71
2024/02/19 04:13:58;;;;;;;0.57;0.40;;;6.80;99.90;;;;;;2049597;28;20207;-72
2024/02/19 04:14:58;;;;;;;0.50;0.50;;;6.80;99.90;;;;;;2059517;28;20192;-72
2024/02/19 04:15:59;;;;;;;0.40;0.40;;;6.80;99.90;;;;;;2053595;28;20213;-72
2024/02/19 04:16:59;;;;;;;0.50;0.50;;;6.70;99.90;;;;;;2059715;28;20278;-72
2024/02/19 04:18:00;;;;;;;0.40;0.40;;;6.70;99.90;;;;;;2054605;28;20193;-73
2024/02/19 04:19:00;;;;;;;0.50;0.50;;;6.70;99.90;;;;;;2050869;28;20238;-72
2024/02/19 04:20:04;;;;;;;0.33;0.33;;;6.70;99.90;;;;;;2062412;28;20202;-72
2024/02/19 04:21:05;;;;;;;0.45;0.45;;;6.60;99.90;;;;;;2059962;28;20260;-73
2024/02/19 04:22:05;;;;;;;0.40;0.40;;;6.60;99.90;;;;;;2053767;28;20183;-73
2024/02/19 04:23:06;;;;;;;1.30;0.73;;;6.60;99.90;;;;;;2055647;28;20835;-73
2024/02/19 04:24:07;;;;;;;0.40;0.40;;;6.60;99.90;;;;;;2057759;28;20656;-73
2024/02/19 04:25:08;;;;;;;0.40;0.40;;;6.60;99.90;;;;;;2053333;28;20215;-73
2024/02/19 04:26:09;;;;;;;0.30;0.30;;;6.60;99.90;;;;;;2054076;28;20203;-72
2024/02/19 04:27:09;;;;;;;0.30;0.30;;;6.60;99.90;;;;;;2053633;28;20616;-73
2024/02/19 04:28:10;;;;;;;0.70;0.40;;;6.60;99.90;;;;;;2055270;28;20191;-73
2024/02/19 04:29:10;;;;;;;0.50;0.40;;;6.50;99.90;;;;;;2059641;28;20272;-73
2024/02/19 04:30:11;;;;;;;0.77;0.40;;;6.60;99.90;;;;;;2054737;28;20664;-73
2024/02/19 04:31:12;;;;;;;0.40;0.40;;;6.60;99.90;;;;;;2058492;28;20182;-73
2024/02/19 04:32:12;;;;;;;0.67;0.50;;;6.60;99.90;;;;;;2050045;28;20203;-73
2024/02/19 04:33:13;;;;;;;0.40;0.40;;;6.60;99.90;;;;;;2054772;28;20206;-72
2024/02/19 04:34:13;;;;;;;0.40;0.40;;;6.70;99.90;;;;;;2053288;28;20187;-72
2024/02/19 04:35:14;;;;;;;0.40;0.40;;;6.70;99.90;;;;;;2046910;28;20195;-72
2024/02/19 04:36:15;;;;;;;0.50;0.50;;;6.60;99.90;;;;;;2045577;28;20736;-73
2024/02/19 04:37:15;;;;;;;1.93;0.77;;;6.50;99.90;;;;;;2055626;28;20229;-74
2024/02/19 04:38:16;;;;;;;0.60;0.60;;;6.40;99.90;;;;;;2056770;28;20186;-73
2024/02/19 04:39:16;;;;;;;0.57;0.57;;;6.40;99.90;;;;;;2051894;28;20231;-72
2024/02/19 04:40:17;;;;;;;0.50;0.30;;;6.40;99.90;;;;;;2051903;28;20297;-73
2024/02/19 04:41:18;;;;;;;0.60;0.60;;;6.40;99.90;;;;;;2058629;28;20234;-72
2024/02/19 04:42:18;;;;;;;0.70;0.70;;;6.40;99.90;;;;;;2049458;28;20223;-72
2024/02/19 04:43:19;;;;;;;1.47;0.57;;;6.40;99.90;;;;;;2052822;28;20290;-72
2024/02/19 04:44:19;;;;;;;1.17;0.90;;;6.40;99.90;;;;;;2059010;28;20227;-73
2024/02/19 04:45:20;;;;;;;1.07;0.70;;;6.40;99.90;;;;;;2054313;28;20234;-73
2024/02/19 04:46:20;;;;;;;1.17;0.80;;;6.40;99.90;;;;;;2058392;28;20296;-73
2024/02/19 04:47:21;;;;;;;2.20;1.00;;;6.40;99.90;;;;;;2049192;28;20606;-74
2024/02/19 04:48:22;;;;;;;2.23;0.90;;;6.30;99.90;;;;;;2054603;28;20237;-73
2024/02/19 04:49:22;;;;;;;1.87;0.90;;;6.30;99.90;;;;;;2057469;28;20725;-73
2024/02/19 04:50:23;;;;;;;2.00;1.00;;;6.30;99.90;;;;;;2049682;28;20709;-73
2024/02/19 04:51:23;;;;;;;1.67;1.10;;;6.30;99.90;;;;;;2049964;28;20243;-73
2024/02/19 04:52:24;;;;;;;2.63;0.97;;;6.30;99.90;;;;;;2050045;28;20239;-73
2024/02/19 04:53:24;;;;;;;3.17;1.40;;;6.30;99.90;;;;;;2053488;28;20238;-73
2024/02/19 04:54:25;;;;;;;1.43;1.00;;;6.30;99.90;;;;;;2061873;28;20271;-73
2024/02/19 04:55:25;;;;;;;1.20;1.10;;;6.30;99.90;;;;;;2054038;28;20239;-73
2024/02/19 04:56:26;;;;;;;1.33;1.00;;;6.30;99.90;;;;;;2053471;28;20673;-73
2024/02/19 04:57:26;;;;;;;2.47;1.50;;;6.40;99.90;;;;;;2053319;28;20240;-73
2024/02/19 04:58:27;;;;;;;1.47;1.20;;;6.40;99.90;;;;;;2050410;28;20367;-73
2024/02/19 04:59:29;;;;;;;2.33;1.43;;;6.50;99.90;;;;;;2051471;28;20239;-73
2024/02/19 05:00:33;;;;;;;9.60;6.55;;;6.50;99.90;;;;;;2054578;28;20293;-75
2024/02/19 05:01:34;;;;;;;1.50;1.17;;;6.50;99.90;;;;;;2057174;28;20310;-73
2024/02/19 05:02:34;;;;;;;2.30;1.20;;;6.50;99.90;;;;;;2054918;28;20584;-73
2024/02/19 05:03:35;;;;;;;2.10;1.07;;;6.40;99.90;;;;;;2056527;28;20289;-73
2024/02/19 05:04:36;;;;;;;1.03;0.90;;;6.40;99.90;;;;;;2049447;28;20242;-73
2024/02/19 05:05:36;;;;;;;1.77;1.00;;;6.40;99.90;;;;;;2055772;28;20656;-73
2024/02/19 05:06:37;;;;;;;2.53;1.00;;;6.30;99.90;;;;;;2056695;28;20321;-73
2024/02/19 05:07:38;;;;;;;1.43;0.90;;;6.30;99.90;;;;;;2055391;28;20226;-74
2024/02/19 05:08:38;;;;;;;1.77;1.13;;;6.30;99.90;;;;;;2056298;28;20324;-73
2024/02/19 05:09:39;;;;;;;2.10;1.00;;;6.40;99.90;;;;;;2061105;28;20230;-73
2024/02/19 05:10:39;;;;;;;1.63;0.93;;;6.40;99.90;;;;;;2057362;28;20237;-73
2024/02/19 05:11:40;;;;;;;0.80;0.80;;;6.40;99.90;;;;;;2049757;28;20653;-74
2024/02/19 05:12:41;;;;;;;2.53;1.00;;;6.40;99.90;;;;;;2052449;28;20223;-73
2024/02/19 05:13:41;;;;;;;1.33;1.00;;;6.40;99.90;;;;;;2053168;28;20246;-73
2024/02/19 05:14:42;;;;;;;1.30;1.10;;;6.40;99.90;;;;;;2058727;28;20216;-74
2024/02/19 05:15:44;;;;;;;3.17;1.10;;;6.40;99.90;;;;;;2058053;28;20238;-73
2024/02/19 05:16:45;;;;;;;2.63;1.23;;;6.50;99.90;;;;;;2054181;28;20317;-74
2024/02/19 05:17:46;;;;;;;1.85;1.00;;;6.50;99.90;;;;;;2052394;28;20230;-73
2024/02/19 05:18:47;;;;;;;1.40;1.10;;;6.50;99.90;;;;;;2056815;28;20242;-73
2024/02/19 05:19:47;;;;;;;1.43;1.20;;;6.60;99.90;;;;;;2056967;28;20219;-73
2024/02/19 05:20:48;;;;;;;1.53;1.30;;;6.50;99.90;;;;;;2049723;28;20251;-74
2024/02/19 05:21:48;;;;;;;1.63;1.30;;;6.50;99.90;;;;;;2058476;28;20233;-73